Time;durP1;ratioP1;P1;durP2;ratioP2;P2;SDS_P1;SDS_P2;PMS_P1;PMS_P2;Temp;Humidity;BMP_temperature;BMP_pressure;BME280_temperature;BME280_humidity;BME280_pressure;Samples;Min_cycle;Max_cycle;Signal;HPM_P1;HPM_P2
2023/12/02 00:00:25;;;;;;;19.38;7.43;;;-0.10;99.90;;;;;;6177820;23;20435;-76
2023/12/02 00:02:52;;;;;;;19.33;7.95;;;-0.10;99.90;;;;;;6181244;23;20009;-76
2023/12/02 00:05:17;;;;;;;24.20;8.70;;;-0.10;99.90;;;;;;6180210;23;20068;-75
2023/12/02 00:07:43;;;;;;;19.17;6.75;;;-0.10;99.90;;;;;;6177437;23;20013;-75
2023/12/02 00:10:10;;;;;;;22.13;7.18;;;-0.10;99.90;;;;;;6180519;23;20343;-75
2023/12/02 00:12:36;;;;;;;23.70;8.55;;;-0.10;99.90;;;;;;6179682;23;20414;-75
2023/12/02 00:15:02;;;;;;;23.52;8.40;;;0.00;99.90;;;;;;6178695;23;20005;-75
2023/12/02 00:17:27;;;;;;;18.80;7.57;;;-0.10;99.90;;;;;;6179537;23;20012;-77
2023/12/02 00:19:53;;;;;;;19.27;6.97;;;-0.10;99.90;;;;;;6178176;23;20009;-75
2023/12/02 00:22:19;;;;;;;17.77;7.75;;;-0.10;99.90;;;;;;6180494;23;20009;-75
2023/12/02 00:24:45;;;;;;;22.38;8.30;;;-0.10;99.90;;;;;;6177570;23;20032;-76
2023/12/02 00:27:11;;;;;;;21.83;8.38;;;-0.10;99.90;;;;;;6178759;23;20328;-76
2023/12/02 00:29:36;;;;;;;17.75;6.97;;;-0.10;99.90;;;;;;6176990;23;20044;-76
2023/12/02 00:32:02;;;;;;;21.55;7.28;;;-0.20;99.90;;;;;;6178405;23;20012;-76
2023/12/02 00:34:27;;;;;;;22.13;8.23;;;-0.20;99.90;;;;;;6177379;23;20075;-76
2023/12/02 00:36:53;;;;;;;19.17;7.68;;;-0.20;99.90;;;;;;6180275;23;20017;-76
2023/12/02 00:39:19;;;;;;;22.50;8.73;;;-0.20;99.90;;;;;;6179894;23;20013;-75
2023/12/02 00:41:44;;;;;;;21.15;7.82;;;-0.20;99.90;;;;;;6177729;23;20012;-76
2023/12/02 00:44:10;;;;;;;18.10;6.90;;;-0.20;99.90;;;;;;6178437;23;20083;-75
2023/12/02 00:46:35;;;;;;;15.30;6.38;;;-0.20;99.90;;;;;;6176925;23;20009;-75
2023/12/02 00:49:01;;;;;;;19.92;8.63;;;-0.20;99.90;;;;;;6179992;23;20076;-75
2023/12/02 00:51:27;;;;;;;23.38;8.00;;;-0.20;99.90;;;;;;6177192;23;20015;-76
2023/12/02 00:53:53;;;;;;;22.70;9.05;;;-0.30;99.90;;;;;;6178615;23;19997;-76
2023/12/02 00:56:18;;;;;;;26.10;8.80;;;-0.30;99.90;;;;;;6180123;23;20001;-76
2023/12/02 00:58:44;;;;;;;18.95;8.18;;;-0.20;99.90;;;;;;6178589;23;20124;-76
2023/12/02 01:01:09;;;;;;;24.60;8.10;;;-0.20;99.90;;;;;;6178053;23;20009;-75
2023/12/02 01:03:35;;;;;;;24.45;9.15;;;-0.20;99.90;;;;;;6178635;23;20476;-75
2023/12/02 01:06:01;;;;;;;16.70;6.50;;;-0.20;99.90;;;;;;6178303;23;20347;-75
2023/12/02 01:08:26;;;;;;;21.85;8.05;;;-0.30;99.90;;;;;;6178573;23;20017;-76
2023/12/02 01:10:52;;;;;;;19.75;6.72;;;-0.30;99.90;;;;;;6178383;23;20066;-76
2023/12/02 01:13:17;;;;;;;18.67;7.20;;;-0.40;99.90;;;;;;6178002;23;20016;-76
2023/12/02 01:15:43;;;;;;;19.92;8.45;;;-0.40;99.90;;;;;;6178759;23;20013;-76
2023/12/02 01:18:08;;;;;;;22.23;7.97;;;-0.40;99.90;;;;;;6178071;23;20016;-75
2023/12/02 01:20:34;;;;;;;20.20;7.20;;;-0.40;99.90;;;;;;6177083;23;20473;-76
2023/12/02 01:22:59;;;;;;;19.55;7.13;;;-0.40;99.90;;;;;;6179971;23;20005;-76
2023/12/02 01:25:25;;;;;;;18.17;6.97;;;-0.40;99.90;;;;;;6178901;23;20017;-76
2023/12/02 01:27:51;;;;;;;21.80;7.80;;;-0.50;99.90;;;;;;6178125;23;20021;-76
2023/12/02 01:30:16;;;;;;;20.67;8.10;;;-0.50;99.90;;;;;;6179821;23;20092;-76
2023/12/02 01:32:42;;;;;;;20.63;8.13;;;-0.40;99.90;;;;;;6177177;23;20013;-76
2023/12/02 01:35:07;;;;;;;19.92;8.20;;;-0.40;99.90;;;;;;6178066;23;20032;-76
2023/12/02 01:37:33;;;;;;;21.70;7.78;;;-0.30;99.90;;;;;;6176643;23;20041;-76
2023/12/02 01:39:59;;;;;;;19.95;7.38;;;-0.40;99.90;;;;;;6177971;23;20005;-76
2023/12/02 01:42:24;;;;;;;20.55;7.50;;;-0.30;99.90;;;;;;6178452;23;20017;-76
2023/12/02 01:44:50;;;;;;;20.15;7.63;;;-0.40;99.90;;;;;;6177459;23;20001;-75
2023/12/02 01:47:15;;;;;;;19.48;7.32;;;-0.40;99.90;;;;;;6177945;23;20013;-75
2023/12/02 01:49:43;;;;;;;21.92;8.82;;;-0.40;99.90;;;;;;6176633;23;20016;-76
2023/12/02 01:52:10;;;;;;;17.52;7.35;;;-0.40;99.90;;;;;;6179051;23;20001;-76
2023/12/02 01:54:36;;;;;;;22.20;8.15;;;-0.40;99.90;;;;;;6178300;23;20067;-76
2023/12/02 01:57:02;;;;;;;20.67;7.43;;;-0.40;99.90;;;;;;6177940;23;20013;-76
2023/12/02 01:59:28;;;;;;;18.27;7.60;;;-0.50;99.90;;;;;;6176487;23;20035;-76
2023/12/02 02:01:54;;;;;;;16.90;7.07;;;-0.50;99.90;;;;;;6179418;23;20059;-77
2023/12/02 02:04:20;;;;;;;24.20;9.43;;;-0.50;99.90;;;;;;6177844;23;20028;-76
2023/12/02 02:06:46;;;;;;;19.75;7.97;;;-0.60;99.90;;;;;;6176632;23;20024;-75
2023/12/02 02:09:11;;;;;;;21.05;7.53;;;-0.60;99.90;;;;;;6179734;23;20001;-75
2023/12/02 02:11:37;;;;;;;25.48;9.52;;;-0.60;99.90;;;;;;6176888;23;20013;-76
2023/12/02 02:14:03;;;;;;;26.13;8.57;;;-0.60;99.90;;;;;;6177891;23;20348;-75
2023/12/02 02:16:28;;;;;;;20.27;7.38;;;-0.60;99.90;;;;;;6179624;23;20060;-76
2023/12/02 02:18:54;;;;;;;19.02;7.70;;;-0.70;99.90;;;;;;6181217;23;20001;-75
2023/12/02 02:21:22;;;;;;;24.13;8.82;;;-0.70;99.90;;;;;;6181707;23;20424;-76
2023/12/02 02:23:48;;;;;;;21.00;8.50;;;-0.80;99.90;;;;;;6180854;23;20059;-76
2023/12/02 02:26:14;;;;;;;25.30;9.63;;;-0.80;99.90;;;;;;6179400;23;20009;-76
2023/12/02 02:28:39;;;;;;;21.75;9.02;;;-0.90;99.90;;;;;;6180238;23;20100;-76
2023/12/02 02:31:05;;;;;;;20.27;8.02;;;-0.90;99.90;;;;;;6179891;23;20071;-76
2023/12/02 02:33:34;;;;;;;20.98;7.72;;;-1.00;99.90;;;;;;6179078;23;20036;-75
2023/12/02 02:36:00;;;;;;;21.45;7.75;;;-1.00;99.90;;;;;;6181076;23;20005;-77
2023/12/02 02:38:25;;;;;;;27.27;9.18;;;-1.10;99.90;;;;;;6178326;23;20347;-76
2023/12/02 02:40:51;;;;;;;20.98;8.82;;;-1.10;99.90;;;;;;6179893;23;20064;-76
2023/12/02 02:43:17;;;;;;;19.95;7.72;;;-1.10;99.90;;;;;;6181178;23;20017;-75
2023/12/02 02:45:42;;;;;;;30.00;8.20;;;-1.20;99.90;;;;;;6180143;23;20020;-76
2023/12/02 02:48:08;;;;;;;25.15;9.57;;;-1.20;99.90;;;;;;6181219;23;20347;-76
2023/12/02 02:50:34;;;;;;;24.63;8.57;;;-1.20;99.90;;;;;;6178190;23;20017;-75
2023/12/02 02:53:00;;;;;;;22.40;9.00;;;-1.20;99.90;;;;;;6181090;23;20083;-76
2023/12/02 02:55:25;;;;;;;22.60;8.25;;;-1.20;99.90;;;;;;6180114;23;20013;-76
2023/12/02 02:57:51;;;;;;;20.08;8.02;;;-1.20;99.90;;;;;;6181102;23;20013;-76
2023/12/02 03:00:18;;;;;;;23.30;8.60;;;-1.30;99.90;;;;;;6181494;23;20013;-76
2023/12/02 03:02:44;;;;;;;21.45;8.85;;;-1.30;99.90;;;;;;6180044;23;20096;-77
2023/12/02 03:05:09;;;;;;;23.52;7.35;;;-1.30;99.90;;;;;;6181090;23;20032;-76
2023/12/02 03:07:35;;;;;;;21.27;8.32;;;-1.40;99.90;;;;;;6178080;23;20017;-76
2023/12/02 03:10:01;;;;;;;22.70;8.30;;;-1.40;99.90;;;;;;6181138;23;20009;-76
2023/12/02 03:12:27;;;;;;;21.45;7.93;;;-1.40;99.90;;;;;;6178054;23;20489;-76
2023/12/02 03:14:54;;;;;;;22.58;8.30;;;-1.40;99.90;;;;;;6181054;23;20056;-76
2023/12/02 03:17:20;;;;;;;26.05;9.35;;;-1.50;99.90;;;;;;6181277;23;20324;-76
2023/12/02 03:19:49;;;;;;;23.63;8.43;;;-1.50;99.90;;;;;;6179613;23;20058;-76
2023/12/02 03:22:15;;;;;;;26.20;9.18;;;-1.50;99.90;;;;;;6180900;23;20005;-76
2023/12/02 03:24:41;;;;;;;24.05;8.32;;;-1.40;99.90;;;;;;6178078;23;20013;-76
2023/12/02 03:27:06;;;;;;;26.63;9.52;;;-1.50;99.90;;;;;;6178860;23;20116;-76
2023/12/02 03:29:32;;;;;;;24.90;9.48;;;-1.50;99.90;;;;;;6179395;23;20095;-76
2023/12/02 03:31:58;;;;;;;29.65;10.68;;;-1.50;99.90;;;;;;6179405;23;20005;-76
2023/12/02 03:34:23;;;;;;;29.50;9.57;;;-1.50;99.90;;;;;;6179793;23;20005;-77
2023/12/02 03:36:49;;;;;;;22.90;7.85;;;-1.60;99.90;;;;;;6179221;23;20359;-77
2023/12/02 03:39:15;;;;;;;24.85;10.15;;;-1.50;99.90;;;;;;6180431;23;20009;-75
2023/12/02 03:41:41;;;;;;;28.02;9.30;;;-1.50;99.90;;;;;;6178007;23;20092;-76
2023/12/02 03:44:07;;;;;;;25.48;9.00;;;-1.50;99.90;;;;;;6178768;23;20020;-75
2023/12/02 03:46:35;;;;;;;23.13;9.23;;;-1.50;99.90;;;;;;6177839;23;20009;-75
2023/12/02 03:49:00;;;;;;;32.28;9.98;;;-1.50;99.90;;;;;;6178849;23;20343;-75
2023/12/02 03:51:26;;;;;;;23.48;8.77;;;-1.50;99.90;;;;;;6179743;23;20017;-75
2023/12/02 03:53:52;;;;;;;30.35;9.98;;;-1.50;99.90;;;;;;6179090;23;20009;-74
2023/12/02 03:56:17;;;;;;;24.90;8.80;;;-1.50;99.90;;;;;;6179054;23;20029;-75
2023/12/02 03:58:43;;;;;;;25.08;8.48;;;-1.50;99.90;;;;;;6177599;23;21454;-75
2023/12/02 04:01:08;;;;;;;29.17;9.57;;;-1.50;99.90;;;;;;6178987;23;20036;-76
2023/12/02 04:03:34;;;;;;;23.38;9.20;;;-1.50;99.90;;;;;;6179221;23;20486;-75
2023/12/02 04:06:00;;;;;;;26.10;9.15;;;-1.60;99.90;;;;;;6180418;23;20730;-76
2023/12/02 04:08:25;;;;;;;21.92;8.70;;;-1.60;99.90;;;;;;6177406;23;20013;-76
2023/12/02 04:10:51;;;;;;;23.83;8.07;;;-1.60;99.90;;;;;;6180408;23;20005;-75
2023/12/02 04:13:18;;;;;;;31.10;10.27;;;-1.60;99.90;;;;;;6178847;23;20092;-75
2023/12/02 04:15:46;;;;;;;25.75;8.13;;;-1.60;99.90;;;;;;6179350;23;20013;-75
2023/12/02 04:18:12;;;;;;;23.05;9.52;;;-1.70;99.90;;;;;;6180564;23;20439;-76
2023/12/02 04:20:37;;;;;;;22.55;8.13;;;-1.70;99.90;;;;;;6179103;23;20020;-76
2023/12/02 04:23:04;;;;;;;24.00;7.88;;;-1.70;99.90;;;;;;6178654;23;20005;-76
2023/12/02 04:25:30;;;;;;;29.10;9.52;;;-1.70;99.90;;;;;;6177056;23;20019;-75
2023/12/02 04:27:55;;;;;;;27.05;9.00;;;-1.70;99.90;;;;;;6180322;23;20455;-75
2023/12/02 04:30:21;;;;;;;24.38;7.90;;;-1.70;99.90;;;;;;6178697;23;20013;-77
2023/12/02 04:32:47;;;;;;;27.38;8.32;;;-1.70;99.90;;;;;;6178950;23;20012;-75
2023/12/02 04:35:13;;;;;;;21.33;8.23;;;-1.70;99.90;;;;;;6178539;23;20009;-75
2023/12/02 04:37:39;;;;;;;23.05;8.70;;;-1.70;99.90;;;;;;6178351;23;20016;-76
2023/12/02 04:40:10;;;;;;;26.77;8.95;;;-1.70;99.90;;;;;;6179128;23;20458;-76
2023/12/02 04:42:39;;;;;;;24.33;8.70;;;-1.80;99.90;;;;;;6179433;23;20009;-75
2023/12/02 04:45:06;;;;;;;24.83;8.27;;;-1.80;99.90;;;;;;6178441;23;20001;-76
2023/12/02 04:47:32;;;;;;;28.55;9.85;;;-1.80;99.90;;;;;;6178698;23;20093;-76
2023/12/02 04:49:57;;;;;;;21.70;8.73;;;-1.80;99.90;;;;;;6177934;23;20032;-75
2023/12/02 04:52:23;;;;;;;27.23;10.30;;;-1.80;99.90;;;;;;6178468;23;20039;-75
2023/12/02 04:54:49;;;;;;;24.80;8.73;;;-1.80;99.90;;;;;;6177916;23;19997;-76
2023/12/02 04:57:14;;;;;;;26.63;9.23;;;-1.90;99.90;;;;;;6180005;23;20001;-75
2023/12/02 04:59:40;;;;;;;29.02;10.57;;;-1.90;99.90;;;;;;6178431;23;20017;-75
2023/12/02 05:02:06;;;;;;;27.27;9.40;;;-1.90;99.90;;;;;;6178244;23;20476;-76
2023/12/02 05:04:32;;;;;;;24.20;8.60;;;-1.80;99.90;;;;;;6178981;23;20348;-75
2023/12/02 05:06:57;;;;;;;28.88;10.00;;;-1.80;99.90;;;;;;6179951;23;20013;-75
2023/12/02 05:09:23;;;;;;;27.85;9.13;;;-1.70;99.90;;;;;;6178259;23;20063;-76
2023/12/02 05:11:48;;;;;;;21.65;8.18;;;-1.70;99.90;;;;;;6176795;23;20008;-76
2023/12/02 05:14:14;;;;;;;27.30;8.77;;;-1.60;99.90;;;;;;6178220;23;20020;-76
2023/12/02 05:16:43;;;;;;;30.48;9.90;;;-1.60;99.90;;;;;;6178411;23;20005;-76
2023/12/02 05:19:09;;;;;;;24.27;7.82;;;-1.60;99.90;;;;;;6178125;23;20584;-76
2023/12/02 05:21:37;;;;;;;26.02;9.18;;;-1.50;99.90;;;;;;6176831;23;20005;-76
2023/12/02 05:24:02;;;;;;;31.50;9.73;;;-1.50;99.90;;;;;;6179814;23;20008;-76
2023/12/02 05:26:28;;;;;;;28.10;9.73;;;-1.50;99.90;;;;;;6178568;23;20006;-76
2023/12/02 05:28:54;;;;;;;30.95;11.30;;;-1.50;99.90;;;;;;6179400;23;20016;-76
2023/12/02 05:31:19;;;;;;;29.08;10.32;;;-1.50;99.90;;;;;;6179873;23;20379;-76
2023/12/02 05:33:46;;;;;;;29.35;10.32;;;-1.60;99.90;;;;;;6178544;23;20013;-77
2023/12/02 05:36:12;;;;;;;27.33;9.15;;;-1.60;99.90;;;;;;6149754;23;20066;-74
2023/12/02 05:38:38;;;;;;;24.65;8.90;;;-1.60;99.90;;;;;;6179306;23;20083;-75
2023/12/02 05:41:04;;;;;;;28.63;10.60;;;-1.60;99.90;;;;;;6179804;23;20012;-73
2023/12/02 05:43:30;;;;;;;25.85;10.00;;;-1.60;99.90;;;;;;6178814;23;20009;-75
2023/12/02 05:45:56;;;;;;;31.58;10.65;;;-1.60;99.90;;;;;;6179954;23;20036;-74
2023/12/02 05:48:21;;;;;;;27.60;9.43;;;-1.70;99.90;;;;;;6179745;23;20037;-73
2023/12/02 05:50:47;;;;;;;29.27;9.57;;;-1.70;99.90;;;;;;6178597;23;20029;-76
2023/12/02 05:53:12;;;;;;;23.50;8.32;;;-1.70;99.90;;;;;;6202691;23;20431;-73
2023/12/02 05:55:38;;;;;;;26.77;8.93;;;-1.70;99.90;;;;;;6178669;23;20005;-73
2023/12/02 05:58:04;;;;;;;28.15;8.52;;;-1.80;99.90;;;;;;6179924;23;20037;-73
2023/12/02 06:00:29;;;;;;;27.10;9.65;;;-1.80;99.90;;;;;;6178744;23;20044;-73
2023/12/02 06:02:55;;;;;;;26.30;8.70;;;-1.80;99.90;;;;;;6179504;23;20092;-73
2023/12/02 06:05:20;;;;;;;26.63;8.77;;;-1.80;99.90;;;;;;6203004;23;20518;-73
2023/12/02 06:07:46;;;;;;;26.60;9.90;;;-1.80;99.90;;;;;;6178241;23;20017;-73
2023/12/02 06:10:12;;;;;;;24.13;8.65;;;-1.80;99.90;;;;;;6179796;23;20163;-73
2023/12/02 06:12:37;;;;;;;29.35;9.60;;;-1.70;99.90;;;;;;6178632;23;20013;-73
2023/12/02 06:15:03;;;;;;;26.90;10.38;;;-1.70;99.90;;;;;;6177736;23;20043;-73
2023/12/02 06:17:31;;;;;;;26.63;9.85;;;-1.60;99.90;;;;;;6178562;23;20013;-73
2023/12/02 06:19:56;;;;;;;24.63;9.60;;;-1.60;99.90;;;;;;6202845;23;20339;-73
2023/12/02 06:22:22;;;;;;;26.75;9.13;;;-1.50;99.90;;;;;;6202996;23;20005;-74
2023/12/02 06:24:48;;;;;;;30.60;10.32;;;-1.50;99.90;;;;;;6177895;23;20414;-73
2023/12/02 06:27:13;;;;;;;31.13;10.07;;;-1.40;99.90;;;;;;6179538;23;20016;-73
2023/12/02 06:29:39;;;;;;;25.23;9.52;;;-1.50;99.90;;;;;;6178004;23;20015;-73
2023/12/02 06:32:04;;;;;;;27.80;9.18;;;-1.40;99.90;;;;;;6179597;23;20494;-74
2023/12/02 06:34:30;;;;;;;26.02;9.48;;;-1.40;99.90;;;;;;6178546;23;20509;-73
2023/12/02 06:36:56;;;;;;;28.83;9.45;;;-1.40;99.90;;;;;;6179026;23;20054;-73
2023/12/02 06:39:21;;;;;;;29.67;10.00;;;-1.40;99.90;;;;;;6179255;23;20013;-73
2023/12/02 06:41:47;;;;;;;28.38;9.05;;;-1.40;99.90;;;;;;6178883;23;20431;-74
2023/12/02 06:44:12;;;;;;;24.75;9.35;;;-1.40;99.90;;;;;;6179679;23;20442;-73
2023/12/02 06:46:38;;;;;;;25.10;8.75;;;-1.50;99.90;;;;;;6201793;23;20120;-73
2023/12/02 06:49:03;;;;;;;27.20;9.65;;;-1.40;99.90;;;;;;6177291;23;20040;-73
2023/12/02 06:51:29;;;;;;;25.30;9.73;;;-1.40;99.90;;;;;;6177954;23;20386;-73
2023/12/02 06:53:58;;;;;;;22.65;9.18;;;-1.50;99.90;;;;;;6202729;23;20504;-72
2023/12/02 06:56:25;;;;;;;22.73;9.48;;;-1.50;99.90;;;;;;6178549;23;20024;-74
2023/12/02 06:58:51;;;;;;;25.27;9.93;;;-1.50;99.90;;;;;;6176872;23;20009;-73
2023/12/02 07:01:30;;;;;;;30.85;9.68;;;-1.60;99.90;;;;;;6179734;23;20084;-73
2023/12/02 07:03:57;;;;;;;26.30;10.35;;;-1.60;99.90;;;;;;6180360;23;20009;-73
2023/12/02 07:06:24;;;;;;;22.05;8.90;;;-1.60;99.90;;;;;;6178495;23;20009;-72
2023/12/02 07:08:51;;;;;;;23.58;10.77;;;-1.60;99.90;;;;;;6180332;23;20069;-72
2023/12/02 07:11:17;;;;;;;22.80;8.35;;;-1.60;99.90;;;;;;6181435;23;20013;-74
2023/12/02 07:13:43;;;;;;;27.40;9.63;;;-1.60;99.90;;;;;;6177746;23;20072;-73
2023/12/02 07:16:10;;;;;;;23.50;8.48;;;-1.50;99.90;;;;;;6179567;23;20005;-72
2023/12/02 07:18:35;;;;;;;25.73;10.13;;;-1.50;99.90;;;;;;6179541;23;20021;-73
2023/12/02 07:21:01;;;;;;;25.10;9.48;;;-1.50;99.90;;;;;;6181168;23;20015;-73
2023/12/02 07:23:28;;;;;;;28.17;9.45;;;-1.50;99.90;;;;;;6179461;23;20474;-72
2023/12/02 07:25:55;;;;;;;28.30;10.55;;;-1.40;99.90;;;;;;6204371;23;20075;-73
2023/12/02 07:28:20;;;;;;;28.40;10.95;;;-1.50;99.90;;;;;;6178401;23;20038;-72
2023/12/02 07:30:48;;;;;;;24.65;9.40;;;-1.50;99.90;;;;;;6177776;23;20009;-73
2023/12/02 07:33:13;;;;;;;25.25;8.15;;;-1.50;99.90;;;;;;6180779;23;20060;-73
2023/12/02 07:35:39;;;;;;;27.75;10.40;;;-1.50;99.90;;;;;;6177604;23;20108;-72
2023/12/02 07:38:05;;;;;;;29.02;10.02;;;-1.50;99.90;;;;;;6180849;23;20024;-72
2023/12/02 07:40:30;;;;;;;25.23;11.07;;;-1.50;99.90;;;;;;6178222;23;20067;-73
2023/12/02 07:42:56;;;;;;;24.70;9.65;;;-1.50;99.90;;;;;;6179175;23;20005;-74
2023/12/02 07:45:22;;;;;;;24.98;8.13;;;-1.50;99.90;;;;;;6180738;23;20084;-73
2023/12/02 07:47:47;;;;;;;30.70;10.80;;;-1.50;99.90;;;;;;6202671;23;20013;-72
2023/12/02 07:50:13;;;;;;;28.88;9.68;;;-1.50;99.90;;;;;;6178903;23;20343;-72
2023/12/02 07:52:38;;;;;;;29.27;11.13;;;-1.50;99.90;;;;;;6202580;23;20075;-74
2023/12/02 07:55:05;;;;;;;27.77;10.63;;;-1.50;99.90;;;;;;6180535;23;20033;-72
2023/12/02 07:57:30;;;;;;;27.48;9.65;;;-1.50;99.90;;;;;;6178170;23;20016;-72
2023/12/02 07:59:56;;;;;;;25.92;9.50;;;-1.50;99.90;;;;;;6179013;23;20338;-73
2023/12/02 08:02:22;;;;;;;28.95;10.82;;;-1.40;99.90;;;;;;6203655;23;20614;-73
2023/12/02 08:04:47;;;;;;;25.98;9.50;;;-1.50;99.90;;;;;;6179549;23;20016;-73
2023/12/02 08:07:13;;;;;;;25.15;10.38;;;-1.50;99.90;;;;;;6203960;23;20090;-74
2023/12/02 08:09:38;;;;;;;28.48;9.65;;;-1.50;99.90;;;;;;6178812;23;20013;-72
2023/12/02 08:12:04;;;;;;;29.85;9.98;;;-1.50;99.90;;;;;;6204367;23;20289;-73
2023/12/02 08:14:30;;;;;;;29.55;9.65;;;-1.50;99.90;;;;;;6177105;23;20009;-73
2023/12/02 08:16:56;;;;;;;27.52;9.88;;;-1.50;99.90;;;;;;6200360;23;19997;-73
2023/12/02 08:19:21;;;;;;;28.13;9.95;;;-1.50;99.90;;;;;;6198732;23;20096;-73
2023/12/02 08:21:47;;;;;;;30.58;10.63;;;-1.50;99.90;;;;;;6175691;23;20009;-73
2023/12/02 08:24:13;;;;;;;32.42;10.02;;;-1.50;99.90;;;;;;6176550;23;20107;-73
2023/12/02 08:26:38;;;;;;;33.35;10.85;;;-1.40;99.90;;;;;;6175430;23;20092;-74
2023/12/02 08:29:04;;;;;;;25.00;8.93;;;-1.30;99.90;;;;;;6176184;23;20044;-73
2023/12/02 08:31:32;;;;;;;25.58;9.73;;;-1.20;99.90;;;;;;6200632;23;20112;-72
2023/12/02 08:33:57;;;;;;;22.45;8.68;;;-1.20;99.90;;;;;;6179097;23;20036;-73
2023/12/02 08:36:23;;;;;;;32.08;10.93;;;-1.10;99.90;;;;;;6178579;23;20451;-74
2023/12/02 08:38:48;;;;;;;28.35;9.40;;;-1.00;99.90;;;;;;6174880;23;20005;-72
2023/12/02 08:41:15;;;;;;;28.95;8.75;;;-0.90;99.90;;;;;;6178812;23;20013;-72
2023/12/02 08:43:43;;;;;;;35.60;10.70;;;-0.90;99.90;;;;;;6176895;23;20043;-73
2023/12/02 08:46:17;;;;;;;30.02;10.80;;;-0.80;99.90;;;;;;6176201;23;20009;-73
2023/12/02 08:48:43;;;;;;;33.83;11.25;;;-0.80;99.90;;;;;;6174811;23;20017;-73
2023/12/02 08:51:09;;;;;;;33.25;11.82;;;-0.70;99.90;;;;;;6175955;23;20059;-73
2023/12/02 08:53:34;;;;;;;31.90;11.05;;;-0.60;99.90;;;;;;6176962;23;20016;-72
2023/12/02 08:56:00;;;;;;;28.60;9.55;;;-0.60;99.90;;;;;;6178434;23;20009;-75
2023/12/02 08:58:25;;;;;;;33.60;10.93;;;-0.60;99.90;;;;;;6177091;23;20017;-74
2023/12/02 09:00:51;;;;;;;27.10;12.05;;;-0.60;99.90;;;;;;6179855;23;20009;-73
2023/12/02 09:03:17;;;;;;;31.90;10.75;;;-0.50;99.90;;;;;;6180981;23;20009;-73
2023/12/02 09:05:43;;;;;;;31.27;9.90;;;-0.50;99.90;;;;;;6192056;23;20019;-73
2023/12/02 09:08:09;;;;;;;27.98;10.07;;;-0.40;99.90;;;;;;6192354;23;20023;-73
2023/12/02 09:10:34;;;;;;;30.83;10.80;;;-0.30;99.90;;;;;;6191133;23;20065;-75
2023/12/02 09:13:00;;;;;;;27.88;10.65;;;-0.20;99.90;;;;;;6179908;23;20013;-74
2023/12/02 09:15:39;;;;;;;29.17;11.48;;;-0.10;99.90;;;;;;6174514;23;20155;-73
2023/12/02 09:18:05;;;;;;;30.63;10.85;;;0.00;99.90;;;;;;6177906;23;20012;-74
2023/12/02 09:20:45;;;;;;;32.95;11.82;;;0.10;99.90;;;;;;6176573;23;20040;-73
2023/12/02 09:23:12;;;;;;;;;;;0.10;99.90;;;;;;6178695;23;20033;-73
2023/12/02 09:25:39;;;;;;;30.75;10.80;;;0.20;99.90;;;;;;6176161;23;19911;-72
2023/12/02 09:28:09;;;;;;;31.38;11.35;;;0.20;99.90;;;;;;6177887;23;20387;-72
2023/12/02 09:30:48;;;;;;;29.53;11.47;;;0.30;99.90;;;;;;6174571;23;20044;-73
2023/12/02 09:33:14;;;;;;;28.20;10.73;;;0.30;99.90;;;;;;6178088;23;20332;-75
2023/12/02 09:35:39;;;;;;;25.88;10.52;;;0.40;99.90;;;;;;6176330;23;20048;-73
2023/12/02 09:38:05;;;;;;;30.90;11.20;;;0.40;99.90;;;;;;6175861;23;20013;-73
2023/12/02 09:40:54;;;;;;;27.77;10.43;;;0.40;99.90;;;;;;6176277;23;20021;-73
2023/12/02 09:43:34;;;;;;;27.38;10.27;;;0.40;99.90;;;;;;6177930;23;20451;-72
2023/12/02 09:46:26;;;;;;;30.70;10.18;;;0.50;99.90;;;;;;6176936;23;20359;-72
2023/12/02 09:49:00;;;;;;;32.92;11.48;;;0.50;99.90;;;;;;6175449;23;20465;-72
2023/12/02 09:51:29;;;;;;;29.73;11.27;;;0.60;99.90;;;;;;6176051;23;20087;-73
2023/12/02 09:54:07;;;;;;;33.13;9.98;;;0.60;99.90;;;;;;6176171;23;20536;-73
2023/12/02 09:56:40;;;;;;;31.38;12.38;;;0.60;99.90;;;;;;6174197;23;20047;-73
2023/12/02 09:59:14;;;;;;;30.20;11.50;;;0.60;99.90;;;;;;6177806;23;20013;-73
2023/12/02 10:01:47;;;;;;;26.30;10.18;;;0.70;99.90;;;;;;6174655;23;20469;-72
2023/12/02 10:04:31;;;;;;;28.90;11.02;;;0.70;99.90;;;;;;6177746;23;20056;-73
2023/12/02 10:07:01;;;;;;;30.48;11.05;;;0.80;99.90;;;;;;6176448;23;20017;-73
2023/12/02 10:09:43;;;;;;;32.28;11.35;;;0.80;99.90;;;;;;6174698;23;20009;-72
2023/12/02 10:12:30;;;;;;;31.13;9.85;;;0.80;99.90;;;;;;6177586;23;20582;-72
2023/12/02 10:15:06;;;;;;;26.30;10.25;;;0.80;99.90;;;;;;6174677;23;20029;-72
2023/12/02 10:17:38;;;;;;;31.67;11.60;;;0.90;99.90;;;;;;6176231;23;20013;-73
2023/12/02 10:20:09;;;;;;;26.45;9.90;;;0.90;99.90;;;;;;6175589;23;20473;-73
2023/12/02 10:22:38;;;;;;;;;;;0.90;99.90;;;;;;6177056;23;20017;-73
2023/12/02 10:25:05;;;;;;;27.98;10.60;;;1.00;99.90;;;;;;6177482;23;19905;-73
2023/12/02 10:27:36;;;;;;;30.65;11.05;;;0.90;99.90;;;;;;6174056;23;20353;-73
2023/12/02 10:30:11;;;;;;;27.08;10.43;;;1.00;99.90;;;;;;6176510;23;20020;-73
2023/12/02 10:32:57;;;;;;;30.00;10.77;;;1.00;99.90;;;;;;6175882;23;20005;-73
2023/12/02 10:35:34;;;;;;;30.35;10.90;;;1.10;99.90;;;;;;6173896;23;20447;-73
2023/12/02 10:38:31;;;;;;;29.48;10.20;;;1.10;99.90;;;;;;6176604;23;20016;-72
2023/12/02 10:41:04;;;;;;;28.70;12.05;;;1.10;99.90;;;;;;6177066;23;20040;-71
2023/12/02 10:43:42;;;;;;;28.10;11.63;;;1.20;99.90;;;;;;6176435;23;20028;-73
2023/12/02 10:46:08;;;;;;;33.30;11.15;;;1.20;99.90;;;;;;6177261;23;20005;-72
2023/12/02 10:48:36;;;;;;;32.45;10.68;;;1.30;99.90;;;;;;6177552;23;20581;-73
2023/12/02 10:51:02;;;;;;;31.38;10.38;;;1.30;99.90;;;;;;6176141;23;20087;-74
2023/12/02 10:53:30;;;;;;;27.73;10.43;;;1.30;99.90;;;;;;6176356;23;20023;-72
2023/12/02 10:56:00;;;;;;;31.10;10.93;;;1.20;99.90;;;;;;6178612;23;20134;-73
2023/12/02 10:58:28;;;;;;;27.48;10.15;;;1.30;99.90;;;;;;6177753;23;20448;-73
2023/12/02 11:01:04;;;;;;;32.28;10.38;;;1.30;99.90;;;;;;6178892;23;20343;-72
2023/12/02 11:03:49;;;;;;;31.02;11.43;;;1.30;99.90;;;;;;6177989;23;20017;-72
2023/12/02 11:06:27;;;;;;;34.53;11.75;;;1.30;99.90;;;;;;6176926;23;20013;-72
2023/12/02 11:08:54;;;;;;;34.88;12.18;;;1.30;99.90;;;;;;6178402;23;20019;-72
2023/12/02 11:11:43;;;;;;;35.15;12.65;;;1.30;99.90;;;;;;6178933;23;20017;-72
2023/12/02 11:14:20;;;;;;;28.58;11.18;;;1.30;99.90;;;;;;6176295;23;20013;-71
2023/12/02 11:16:51;;;;;;;37.38;11.75;;;1.20;99.90;;;;;;6177880;23;20017;-74
2023/12/02 11:19:36;;;;;;;32.50;11.43;;;1.20;99.90;;;;;;6176600;23;20096;-73
2023/12/02 11:22:26;;;;;;;33.97;12.68;;;1.20;99.90;;;;;;6176101;23;20096;-74
2023/12/02 11:25:24;;;;;;;29.58;11.05;;;1.20;99.90;;;;;;6176321;23;20012;-72
2023/12/02 11:28:13;;;;;;;28.83;10.98;;;1.20;99.90;;;;;;6177375;23;20013;-72
2023/12/02 11:30:57;;;;;;;31.08;11.48;;;1.20;99.90;;;;;;6165271;23;20036;-72
2023/12/02 11:33:22;;;;;;;30.55;10.25;;;1.20;99.90;;;;;;6176953;23;20431;-71
2023/12/02 11:46:18;;;;;;;30.63;12.43;;;1.20;99.90;;;;;;6168603;22;20112;-75
2023/12/02 11:49:01;;;;;;;30.30;11.88;;;1.20;99.90;;;;;;6175086;23;20016;-76
2023/12/02 11:51:27;;;;;;;30.40;10.90;;;1.30;99.90;;;;;;6172177;23;20342;-75
2023/12/02 11:54:14;;;;;;;31.08;11.60;;;1.30;99.90;;;;;;6178214;23;20021;-76
2023/12/02 11:56:57;;;;;;;30.17;12.32;;;1.30;99.90;;;;;;6174794;23;20009;-77
2023/12/02 11:59:31;;;;;;;28.55;12.15;;;1.40;99.90;;;;;;6177768;23;20239;-77
2023/12/02 12:02:38;;;;;;;34.45;12.02;;;1.50;99.90;;;;;;6173138;23;20671;-76
2023/12/02 12:05:21;;;;;;;32.55;12.00;;;1.60;99.90;;;;;;6158667;23;20080;-76
2023/12/02 12:07:58;;;;;;;33.95;10.65;;;1.80;99.90;;;;;;6176016;23;20092;-75
2023/12/02 12:10:37;;;;;;;30.05;10.73;;;1.90;99.90;;;;;;6178622;23;20009;-76
2023/12/02 12:13:06;;;;;;;39.15;14.10;;;1.90;99.90;;;;;;6176994;23;20012;-76
2023/12/02 12:15:32;;;;;;;27.48;11.38;;;1.90;99.90;;;;;;6174882;23;20017;-75
2023/12/02 12:17:57;;;;;;;28.27;12.45;;;2.00;99.90;;;;;;6174579;23;20016;-76
2023/12/02 12:20:26;;;;;;;32.08;11.65;;;2.10;99.90;;;;;;6175605;23;20013;-76
2023/12/02 12:22:52;;;;;;;28.63;11.23;;;2.20;99.90;;;;;;6177707;23;20829;-78
2023/12/02 12:25:17;;;;;;;32.25;11.02;;;2.20;99.90;;;;;;6176127;23;20036;-78
2023/12/02 12:27:43;;;;;;;27.27;10.15;;;2.20;99.90;;;;;;6175649;23;20079;-79
2023/12/02 12:30:09;;;;;;;26.48;10.77;;;2.20;99.90;;;;;;6176570;23;20012;-77
2023/12/02 12:32:37;;;;;;;29.88;11.90;;;2.20;99.90;;;;;;6175456;23;20465;-75
2023/12/02 12:35:14;;;;;;;32.47;12.57;;;2.20;99.90;;;;;;6178497;23;20051;-76
2023/12/02 12:37:41;;;;;;;26.13;10.02;;;2.10;99.90;;;;;;6174828;23;20071;-77
2023/12/02 12:40:13;;;;;;;29.55;10.75;;;2.10;99.90;;;;;;6176522;23;20005;-77
2023/12/02 12:42:48;;;;;;;27.77;9.70;;;2.20;99.90;;;;;;6174811;23;20021;-77
2023/12/02 12:45:14;;;;;;;31.92;10.80;;;2.20;99.90;;;;;;6175631;23;20072;-74
2023/12/02 12:47:42;;;;;;;28.23;11.00;;;2.20;99.90;;;;;;6175724;23;20009;-79
2023/12/02 12:50:12;;;;;;;37.17;11.75;;;2.30;99.90;;;;;;6178649;23;20009;-76